createdAt,value
2022-08-05T00:01:27.767Z,101206.34
2022-08-05T00:03:57.029Z,101208.06
2022-08-05T00:06:28.916Z,101181.16
2022-08-05T00:08:56.019Z,101177.97
2022-08-05T00:11:30.262Z,101189.34
2022-08-05T00:14:02.481Z,101202.94
2022-08-05T00:16:53.746Z,101209.06
2022-08-05T00:19:22.687Z,101213.91
2022-08-05T00:21:50.122Z,101206.25
2022-08-05T00:24:19.351Z,101214.31
2022-08-05T00:26:52.883Z,101222.44
2022-08-05T00:29:22.723Z,101214.78
2022-08-05T00:32:10.530Z,101222.25
2022-08-05T00:34:56.127Z,101226.09
2022-08-05T00:37:10.923Z,101239.06
2022-08-05T00:39:57.317Z,101242.28
2022-08-05T00:42:37.138Z,101246.50
2022-08-05T00:45:06.626Z,101249.28
2022-08-05T00:47:56.905Z,101245.03
2022-08-05T00:50:25.121Z,101228.63
2022-08-05T00:52:55.002Z,101204.56
2022-08-05T00:55:22.385Z,101216.50
2022-08-05T00:57:55.691Z,101223.41
2022-08-05T01:00:29.743Z,101219.53
2022-08-05T01:02:58.146Z,101224.81
2022-08-05T01:05:27.474Z,101225.63
2022-08-05T01:08:40.996Z,101226.84
2022-08-05T01:10:51.820Z,101225.63
2022-08-05T01:13:57.314Z,101218.09
2022-08-05T01:16:34.929Z,101223.94
2022-08-05T01:19:14.322Z,101204.94
2022-08-05T01:21:58.387Z,101214.91
2022-08-05T01:24:52.496Z,101213.09
2022-08-05T01:27:50.477Z,101212.91
2022-08-05T01:30:34.007Z,101193.16
2022-08-05T01:33:08.510Z,101186.66
2022-08-05T01:35:52.214Z,101187.50
2022-08-05T01:38:27.241Z,101199.22
2022-08-05T01:41:01.921Z,101203.88
2022-08-05T01:43:31.192Z,101203.50
2022-08-05T01:45:58.310Z,101200.66
2022-08-05T01:48:35.749Z,101210.94
2022-08-05T01:51:12.533Z,101216.63
2022-08-05T01:53:55.088Z,101220.25
2022-08-05T01:58:10.034Z,101226.91
2022-08-05T01:59:23.142Z,101236.81
2022-08-05T02:01:51.521Z,101235.97
2022-08-05T02:04:24.129Z,101235.19
2022-08-05T02:06:52.708Z,101222.25
2022-08-05T02:09:20.553Z,101223.88
2022-08-05T02:12:06.062Z,101229.13
2022-08-05T02:14:53.511Z,101234.16
2022-08-05T02:18:27.948Z,101234.16
2022-08-05T02:20:26.245Z,101243.69
2022-08-05T02:23:03.086Z,101239.03
2022-08-05T02:25:49.092Z,101246.50
2022-08-05T02:28:28.929Z,101242.50
2022-08-05T02:31:04.040Z,101248.56
2022-08-05T02:33:38.825Z,101253.22
2022-08-05T02:36:13.660Z,101239.09
2022-08-05T02:38:53.098Z,101242.94
2022-08-05T02:41:22.894Z,101243.72
2022-08-05T02:44:02.405Z,101241.50
2022-08-05T02:46:35.946Z,101252.00
2022-08-05T02:49:20.304Z,101257.84
2022-08-05T02:52:01.131Z,101267.56
2022-08-05T02:54:34.782Z,101277.69
2022-08-05T02:57:10.235Z,101276.25
2022-08-05T02:59:54.935Z,101281.50
2022-08-05T03:02:31.716Z,101277.66
2022-08-05T03:04:59.801Z,101278.06
2022-08-05T03:08:00.979Z,101275.44
2022-08-05T03:10:22.002Z,101271.56
2022-08-05T03:12:54.119Z,101269.16
2022-08-05T03:15:23.834Z,101269.16
2022-08-05T03:17:55.593Z,101268.16
2022-08-05T03:20:24.297Z,101267.16
2022-08-05T03:22:52.158Z,101268.41
2022-08-05T03:25:32.442Z,101259.13
2022-08-05T03:28:03.108Z,101248.81
2022-08-05T03:30:34.798Z,101236.53
2022-08-05T03:33:04.130Z,101241.56
2022-08-05T03:35:40.731Z,101242.38
2022-08-05T03:38:11.524Z,101239.53
2022-08-05T03:40:45.040Z,101231.28
2022-08-05T03:43:58.434Z,101235.72
2022-08-05T03:46:01.605Z,101231.91
2022-08-05T03:48:29.048Z,101225.44
2022-08-05T03:52:37.589Z,101220.19
2022-08-05T03:55:51.035Z,101214.09
2022-08-05T03:57:00.864Z,101213.09
2022-08-05T03:59:54.894Z,101196.97
2022-08-05T04:02:39.035Z,101197.16
2022-08-05T04:05:12.957Z,101196.75
2022-08-05T04:07:57.760Z,101191.09
2022-08-05T04:10:27.657Z,101195.56
2022-08-05T04:12:59.054Z,101198.34
2022-08-05T04:15:33.376Z,101211.91
2022-08-05T04:18:06.741Z,101224.63
2022-08-05T04:20:34.481Z,101218.34
2022-08-05T04:23:01.445Z,101214.72
2022-08-05T04:25:56.856Z,101208.25
2022-08-05T04:28:15.040Z,101205.81
2022-08-05T04:30:43.646Z,101200.38
2022-08-05T04:33:10.804Z,101212.69
2022-08-05T04:36:09.492Z,101214.94
2022-08-05T04:38:39.215Z,101216.94
2022-08-05T04:41:07.321Z,101207.81
2022-08-05T04:43:36.387Z,101217.34
2022-08-05T04:46:05.106Z,101230.25
2022-08-05T04:48:31.910Z,101227.63
2022-08-05T04:51:01.439Z,101225.22
2022-08-05T04:53:29.195Z,101230.25
2022-08-05T04:56:32.203Z,101241.34
2022-08-05T04:58:46.789Z,101246.44
2022-08-05T05:01:13.710Z,101239.56
2022-08-05T05:03:42.222Z,101234.72
2022-08-05T05:06:38.918Z,101241.81
2022-08-05T05:08:59.853Z,101241.19
2022-08-05T05:11:41.527Z,101251.91
2022-08-05T05:14:16.039Z,101271.28
2022-08-05T05:16:43.009Z,101278.16
2022-08-05T05:19:19.421Z,101274.72
2022-08-05T05:21:50.351Z,101277.75
2022-08-05T05:24:22.323Z,101274.72
2022-08-05T05:27:08.857Z,101277.94
2022-08-05T05:30:03.958Z,101274.28
2022-08-05T05:32:23.307Z,101270.25
2022-08-05T05:34:52.492Z,101274.91
2022-08-05T05:37:19.207Z,101272.69
2022-08-05T05:39:45.951Z,101280.16
2022-08-05T05:42:12.630Z,101273.69
2022-08-05T05:44:43.126Z,101273.69
2022-08-05T05:47:30.237Z,101270.66
2022-08-05T05:50:01.826Z,101262.78
2022-08-05T05:52:34.602Z,101276.09
2022-08-05T05:55:13.269Z,101285.41
2022-08-05T05:57:51.950Z,101305.22
2022-08-05T06:00:21.048Z,101304.81
2022-08-05T06:02:54.408Z,101297.31
2022-08-05T06:05:21.379Z,101287.47
2022-08-05T06:07:57.901Z,101284.84
2022-08-05T06:10:29.460Z,101282.81
2022-08-05T06:13:03.939Z,101285.22
2022-08-05T06:16:28.927Z,101278.16
2022-08-05T06:18:17.083Z,101301.19
2022-08-05T06:20:47.712Z,101293.91
2022-08-05T06:23:14.521Z,101295.31
2022-08-05T06:26:12.684Z,101294.09
2022-08-05T06:28:28.586Z,101296.31
2022-08-05T06:30:55.649Z,101298.34
2022-08-05T06:33:33.395Z,101297.94
2022-08-05T06:36:10.416Z,101293.28
2022-08-05T06:38:37.305Z,101299.75
2022-08-05T06:41:04.894Z,101312.69
2022-08-05T06:43:59.723Z,101314.69
2022-08-05T06:46:18.224Z,101310.47
2022-08-05T06:48:55.841Z,101303.59
2022-08-05T06:51:29.980Z,101306.38
2022-08-05T06:54:01.945Z,101305.75
2022-08-05T06:56:29.984Z,101295.22
2022-08-05T06:58:59.999Z,101299.09
2022-08-05T07:01:27.608Z,101298.31
2022-08-05T07:04:01.461Z,101302.16
2022-08-05T07:06:29.172Z,101303.38
2022-08-05T07:08:55.942Z,101305.16
2022-08-05T07:11:27.971Z,101310.81
2022-08-05T07:14:19.975Z,101316.28
2022-08-05T07:17:59.112Z,101326.94
2022-08-05T07:22:34.003Z,101336.84
2022-08-05T07:25:23.417Z,101343.53
2022-08-05T07:27:58.239Z,101339.28
2022-08-05T07:30:32.715Z,101332.41
2022-08-05T07:33:01.501Z,101328.56
2022-08-05T07:36:04.263Z,101336.63
2022-08-05T07:38:25.375Z,101346.53
2022-08-05T07:41:16.506Z,101350.75
2022-08-05T07:43:50.556Z,101350.34
2022-08-05T07:46:25.430Z,101351.75
2022-08-05T07:49:03.075Z,101344.66
2022-08-05T07:51:40.618Z,101348.88
2022-08-05T07:54:15.222Z,101340.13
2022-08-05T07:57:02.613Z,101347.44
2022-08-05T07:59:38.871Z,101349.47
2022-08-05T08:02:17.098Z,101365.03
2022-08-05T08:04:46.627Z,101366.66
2022-08-05T08:07:15.008Z,101375.72
2022-08-05T08:09:42.341Z,101372.63
2022-08-05T08:12:20.960Z,101364.09
2022-08-05T08:14:55.818Z,101372.19
2022-08-05T08:17:23.578Z,101367.09
2022-08-05T08:20:22.308Z,101369.28
2022-08-05T08:22:37.906Z,101372.91
2022-08-05T08:25:16.343Z,101366.56
2022-08-05T08:27:47.673Z,101362.06
2022-08-05T08:30:29.782Z,101369.34
2022-08-05T08:33:08.549Z,101378.00
2022-08-05T08:35:41.310Z,101369.81
2022-08-05T08:38:36.060Z,101374.88
2022-08-05T08:41:08.668Z,101384.06
2022-08-05T08:45:20.238Z,101382.75
2022-08-05T08:46:24.450Z,101383.44
2022-08-05T08:49:06.368Z,101379.97
2022-08-05T08:52:02.821Z,101373.63
2022-08-05T08:54:30.820Z,101380.47
2022-08-05T08:56:59.583Z,101382.78
2022-08-05T08:59:27.661Z,101377.97
2022-08-05T09:02:01.252Z,101381.19
2022-08-05T09:04:30.688Z,101380.34
2022-08-05T09:06:58.311Z,101389.41
2022-08-05T09:09:26.005Z,101402.34
2022-08-05T09:12:04.633Z,101408.44
2022-08-05T09:14:58.725Z,101400.28
2022-08-05T09:17:42.898Z,101403.28
2022-08-05T09:20:36.424Z,101415.59
2022-08-05T09:23:21.802Z,101415.38
2022-08-05T09:26:01.064Z,101415.50
2022-08-05T09:28:33.204Z,101419.47
2022-08-05T09:31:22.093Z,101424.06
2022-08-05T09:33:59.325Z,101434.41
2022-08-05T09:36:55.630Z,101433.38
2022-08-05T09:39:27.635Z,101437.72
2022-08-05T09:42:08.578Z,101443.63
2022-08-05T09:44:50.591Z,101438.63
2022-08-05T09:47:20.849Z,101439.47
2022-08-05T09:50:01.778Z,101432.16
2022-08-05T09:52:36.017Z,101437.84
2022-08-05T09:55:56.794Z,101439.44
2022-08-05T09:57:59.962Z,101439.94
2022-08-05T10:00:27.726Z,101449.13
2022-08-05T10:02:58.608Z,101432.94
2022-08-05T10:05:28.195Z,101448.13
2022-08-05T10:08:10.962Z,101442.72
2022-08-05T10:10:54.274Z,101444.09
2022-08-05T10:13:47.670Z,101443.25
2022-08-05T10:16:37.781Z,101435.28
2022-08-05T10:19:10.132Z,101440.47
2022-08-05T10:21:40.271Z,101443.78
2022-08-05T10:24:10.661Z,101444.50
2022-08-05T10:26:48.905Z,101436.91
2022-08-05T10:30:05.700Z,101433.72
2022-08-05T10:33:01.020Z,101429.81
2022-08-05T10:34:51.813Z,101446.97
2022-08-05T10:37:19.058Z,101449.25
2022-08-05T10:39:59.525Z,101448.22
2022-08-05T10:42:43.908Z,101450.97
2022-08-05T10:45:21.490Z,101454.19
2022-08-05T10:48:29.731Z,101455.56
2022-08-05T10:51:03.414Z,101450.34
2022-08-05T10:54:02.032Z,101462.44
2022-08-05T10:56:49.299Z,101455.72
2022-08-05T11:00:03.740Z,101457.97
2022-08-05T11:02:38.209Z,101457.81
2022-08-05T11:05:09.531Z,101467.16
2022-08-05T11:08:01.233Z,101472.97
2022-08-05T11:10:30.421Z,101476.34
2022-08-05T11:12:59.443Z,101480.16
2022-08-05T11:16:00.894Z,101479.13
2022-08-05T11:18:32.430Z,101479.78
2022-08-05T11:21:00.024Z,101489.00
2022-08-05T11:24:04.503Z,101483.75
2022-08-05T11:26:32.367Z,101493.66
2022-08-05T11:29:12.667Z,101491.81
2022-08-05T11:31:57.072Z,101496.63
2022-08-05T11:34:51.739Z,101501.91
2022-08-05T11:38:31.029Z,101501.72
2022-08-05T11:41:54.443Z,101501.22
2022-08-05T11:44:40.182Z,101501.72
2022-08-05T11:47:14.052Z,101495.94
2022-08-05T11:49:50.992Z,101501.06
2022-08-05T11:52:29.310Z,101507.16
2022-08-05T11:54:58.140Z,101508.47
2022-08-05T11:57:30.674Z,101513.28
2022-08-05T12:00:25.085Z,101512.28
2022-08-05T12:02:54.199Z,101511.50
2022-08-05T12:05:32.268Z,101517.84
2022-08-05T12:08:10.855Z,101520.41
2022-08-05T12:10:45.280Z,101533.72
2022-08-05T12:13:16.779Z,101524.19
2022-08-05T12:15:49.819Z,101529.13
2022-08-05T12:18:32.750Z,101524.19
2022-08-05T12:21:18.222Z,101528.41
2022-08-05T12:24:11.367Z,101537.53
2022-08-05T12:26:57.462Z,101536.56
2022-08-05T12:29:27.116Z,101545.91
2022-08-05T12:32:01.875Z,101553.50
2022-08-05T12:34:31.377Z,101554.53
2022-08-05T12:37:00.720Z,101558.38
2022-08-05T12:39:34.575Z,101549.75
2022-08-05T12:42:09.099Z,101575.88
2022-08-05T12:44:41.368Z,101576.94
2022-08-05T12:47:12.517Z,101571.53
2022-08-05T12:50:03.483Z,101581.44
2022-08-05T12:52:38.802Z,101586.63
2022-08-05T12:55:25.142Z,101589.84
2022-08-05T12:58:38.175Z,101592.19
2022-08-05T13:02:01.595Z,101598.44
2022-08-05T13:03:41.787Z,101596.94
2022-08-05T13:06:19.813Z,101600.97
2022-08-05T13:08:52.300Z,101601.41
2022-08-05T13:12:01.617Z,101613.00
2022-08-05T13:14:25.071Z,101607.69
2022-08-05T13:17:09.237Z,101604.13
2022-08-05T13:19:51.759Z,101609.53
2022-08-05T13:22:28.484Z,101620.00
2022-08-05T13:25:00.975Z,101630.16
2022-08-05T13:27:39.668Z,101638.59
2022-08-05T13:30:32.879Z,101634.34
2022-08-05T13:32:57.394Z,101640.03
2022-08-05T13:35:43.269Z,101643.97
2022-08-05T13:38:28.471Z,101656.66
2022-08-05T13:40:59.025Z,101643.41
2022-08-05T13:43:44.886Z,101643.84
2022-08-05T13:46:13.624Z,101660.38
2022-08-05T13:48:57.793Z,101647.25
2022-08-05T13:51:29.931Z,101649.81
2022-08-05T13:54:12.698Z,101660.88
2022-08-05T13:56:45.443Z,101667.06
2022-08-05T13:59:24.286Z,101662.75
2022-08-05T14:01:59.528Z,101661.13
2022-08-05T14:04:51.615Z,101664.31
2022-08-05T14:07:56.853Z,101669.59
2022-08-05T14:10:28.015Z,101679.22
2022-08-05T14:12:57.165Z,101675.19
2022-08-05T14:16:07.195Z,101681.63
2022-08-05T14:18:14.907Z,101693.75
2022-08-05T14:20:47.301Z,101687.28
2022-08-05T14:23:23.335Z,101706.78
2022-08-05T14:25:54.105Z,101697.56
2022-08-05T14:28:26.548Z,101700.31
2022-08-05T14:30:54.592Z,101699.72
2022-08-05T14:33:23.046Z,101700.53
2022-08-05T14:35:51.810Z,101706.53
2022-08-05T14:38:31.688Z,101713.13
2022-08-05T14:41:01.836Z,101713.91
2022-08-05T14:43:58.833Z,101720.59
2022-08-05T14:46:20.375Z,101713.03
2022-08-05T14:48:49.143Z,101722.78
2022-08-05T14:51:17.653Z,101715.13
2022-08-05T14:53:45.347Z,101721.69
2022-08-05T14:56:31.887Z,101728.19
2022-08-05T14:58:58.699Z,101731.69
2022-08-05T15:01:47.112Z,101733.31
2022-08-05T15:04:12.390Z,101737.03
2022-08-05T15:06:40.550Z,101732.41
2022-08-05T15:09:07.372Z,101741.63
2022-08-05T15:11:51.372Z,101743.31
2022-08-05T15:14:35.566Z,101751.56
2022-08-05T15:17:44.302Z,101748.88
2022-08-05T15:19:56.974Z,101749.97
2022-08-05T15:22:27.309Z,101750.81
2022-08-05T15:24:55.944Z,101748.53
2022-08-05T15:27:22.472Z,101756.25
2022-08-05T15:29:56.665Z,101759.91
2022-08-05T15:32:27.272Z,101761.69
2022-08-05T15:34:56.595Z,101768.00
2022-08-05T15:38:08.623Z,101763.00
2022-08-05T15:41:03.072Z,101763.81
2022-08-05T15:43:09.138Z,101762.28
2022-08-05T15:45:45.974Z,101766.84
2022-08-05T15:48:14.297Z,101762.06
2022-08-05T15:50:41.664Z,101756.25
2022-08-05T15:53:12.506Z,101756.53
2022-08-05T15:56:03.110Z,101758.50
2022-08-05T15:58:28.190Z,101765.56
2022-08-05T16:01:16.716Z,101757.94
2022-08-05T16:03:43.123Z,101761.09
2022-08-05T16:06:11.221Z,101761.69
2022-08-05T16:08:38.610Z,101758.44
2022-08-05T16:11:07.306Z,101769.63
2022-08-05T16:13:35.074Z,101772.28
2022-08-05T16:16:05.762Z,101769.41
2022-08-05T16:18:35.627Z,101777.31
2022-08-05T16:21:18.840Z,101761.31
2022-08-05T16:23:54.172Z,101770.19
2022-08-05T16:26:26.571Z,101769.59
2022-08-05T16:28:55.284Z,101773.91
2022-08-05T16:31:22.357Z,101777.63
2022-08-05T16:33:50.758Z,101788.44
2022-08-05T16:36:20.409Z,101784.25
2022-08-05T16:38:55.054Z,101788.13
2022-08-05T16:42:27.732Z,101787.88
2022-08-05T16:44:15.638Z,101791.13
2022-08-05T16:46:55.744Z,101786.25
2022-08-05T16:49:23.431Z,101788.47
2022-08-05T16:51:51.365Z,101785.47
2022-08-05T16:54:28.671Z,101790.34
2022-08-05T16:56:58.712Z,101797.56
2022-08-05T16:59:25.486Z,101795.34
2022-08-05T17:01:55.946Z,101802.09
2022-08-05T17:04:27.644Z,101804.16
2022-08-05T17:07:01.218Z,101805.88
2022-08-05T17:09:29.931Z,101808.97
2022-08-05T17:11:59.454Z,101808.38
2022-08-05T17:14:37.422Z,101800.28
2022-08-05T17:17:06.746Z,101802.75
2022-08-05T17:19:43.837Z,101808.44
2022-08-05T17:22:17.902Z,101816.72
2022-08-05T17:24:56.963Z,101814.06
2022-08-05T17:27:34.460Z,101815.13
2022-08-05T17:30:02.692Z,101814.91
2022-08-05T17:32:30.186Z,101810.81
2022-08-05T17:35:00.573Z,101819.75
2022-08-05T17:37:41.700Z,101819.13
2022-08-05T17:40:14.905Z,101828.47
2022-08-05T17:42:51.281Z,101828.91
2022-08-05T17:45:22.623Z,101831.75
2022-08-05T17:47:55.386Z,101842.31
2022-08-05T17:50:30.343Z,101842.13
2022-08-05T17:53:05.255Z,101846.81
2022-08-05T17:55:37.479Z,101847.66
2022-08-05T17:58:06.873Z,101855.38
2022-08-05T18:00:34.562Z,101861.69
2022-08-05T18:03:02.177Z,101857.06
2022-08-05T18:05:35.261Z,101869.06
2022-08-05T18:08:02.947Z,101872.13
2022-08-05T18:10:32.251Z,101873.94
2022-08-05T18:13:00.625Z,101868.69
2022-08-05T18:15:34.094Z,101878.03
2022-08-05T18:18:05.740Z,101887.38
2022-08-05T18:20:37.792Z,101889.81
2022-08-05T18:23:09.182Z,101892.63
2022-08-05T18:25:39.195Z,101895.84
2022-08-05T18:28:09.540Z,101899.88
2022-08-05T18:30:39.118Z,101902.94
2022-08-05T18:33:07.448Z,101908.00
2022-08-05T18:35:59.770Z,101919.13
2022-08-05T18:38:25.774Z,101910.56
2022-08-05T18:41:56.033Z,101918.69
2022-08-05T18:43:43.280Z,101912.78
2022-08-05T18:46:19.812Z,101919.03
2022-08-05T18:48:47.966Z,101927.28
2022-08-05T18:52:04.447Z,101923.81
2022-08-05T18:54:25.312Z,101932.84
2022-08-05T18:56:52.197Z,101927.19
2022-08-05T18:59:43.960Z,101929.97
2022-08-05T19:02:11.307Z,101936.41
2022-08-05T19:05:03.220Z,101935.97
2022-08-05T19:07:45.947Z,101934.09
2022-08-05T19:10:17.313Z,101946.03
2022-08-05T19:12:46.057Z,101946.81
2022-08-05T19:15:56.694Z,101942.66
2022-08-05T19:18:09.455Z,101948.50
2022-08-05T19:20:41.805Z,101952.34
2022-08-05T19:24:04.543Z,101953.91
2022-08-05T19:26:03.177Z,101954.88
2022-08-05T19:28:31.224Z,101960.28
2022-08-05T19:31:00.952Z,101969.09
2022-08-05T19:33:35.491Z,101974.06
2022-08-05T19:36:06.870Z,101981.53
2022-08-05T19:38:36.923Z,101985.50
2022-08-05T19:41:07.230Z,101989.91
2022-08-05T19:44:06.629Z,101996.50
2022-08-05T19:46:29.406Z,102003.16
2022-08-05T19:49:03.548Z,102003.50
2022-08-05T19:52:05.364Z,102005.91
2022-08-05T19:54:27.197Z,102017.59
2022-08-05T19:57:06.412Z,102018.50
2022-08-05T20:00:00.674Z,102023.28
2022-08-05T20:02:22.705Z,102028.31
2022-08-05T20:04:49.709Z,102029.50
2022-08-05T20:07:47.008Z,102033.47
2022-08-05T20:10:11.741Z,102031.38
2022-08-05T20:12:48.416Z,102032.59
2022-08-05T20:15:48.543Z,102039.38
2022-08-05T20:18:10.689Z,102045.16
2022-08-05T20:20:55.054Z,102040.47
2022-08-05T20:23:23.514Z,102056.41
2022-08-05T20:25:52.222Z,102056.56
2022-08-05T20:28:19.140Z,102055.31
2022-08-05T20:30:45.760Z,102060.91
2022-08-05T20:33:14.517Z,102063.06
2022-08-05T20:35:45.653Z,102072.28
2022-08-05T20:38:19.987Z,102072.34
2022-08-05T20:40:53.229Z,102072.88
2022-08-05T20:43:33.348Z,102075.88
2022-08-05T20:46:10.202Z,102074.41
2022-08-05T20:48:39.173Z,102070.53
2022-08-05T20:51:08.930Z,102073.22
2022-08-05T20:53:36.569Z,102085.88
2022-08-05T20:56:08.694Z,102090.03
2022-08-05T20:58:36.045Z,102085.47
2022-08-05T21:01:03.900Z,102082.41
2022-08-05T21:03:34.719Z,102099.47
2022-08-05T21:06:01.769Z,102095.56
2022-08-05T21:08:35.941Z,102095.94
2022-08-05T21:11:12.142Z,102094.47
2022-08-05T21:13:47.990Z,102097.78
2022-08-05T21:16:29.090Z,102102.72
2022-08-05T21:18:59.821Z,102107.69
2022-08-05T21:21:39.654Z,102108.84
2022-08-05T21:24:12.800Z,102108.53
2022-08-05T21:26:39.644Z,102110.53
2022-08-05T21:29:12.586Z,102111.88
2022-08-05T21:31:43.457Z,102113.31
2022-08-05T21:34:11.129Z,102116.28
2022-08-05T21:36:38.254Z,102120.22
2022-08-05T21:39:04.913Z,102117.16
2022-08-05T21:41:34.266Z,102121.09
2022-08-05T21:44:04.469Z,102124.22
2022-08-05T21:46:34.345Z,102128.34
2022-08-05T21:49:01.790Z,102126.88
2022-08-05T21:52:22.735Z,102123.94
2022-08-05T21:54:15.024Z,102129.06
2022-08-05T21:56:44.666Z,102126.75
2022-08-05T21:59:23.893Z,102121.38
2022-08-05T22:01:54.501Z,102123.69
2022-08-05T22:04:25.400Z,102123.22
2022-08-05T22:06:52.688Z,102125.53
2022-08-05T22:09:21.088Z,102126.03
2022-08-05T22:11:48.431Z,102125.53
2022-08-05T22:14:35.824Z,102133.22
2022-08-05T22:17:04.954Z,102132.75
2022-08-05T22:20:02.879Z,102131.78
2022-08-05T22:22:26.593Z,102134.72
2022-08-05T22:25:21.055Z,102134.91
2022-08-05T22:28:08.999Z,102136.22
2022-08-05T22:30:56.462Z,102141.28
2022-08-05T22:33:58.635Z,102137.81
2022-08-05T22:36:14.190Z,102143.06
2022-08-05T22:38:42.803Z,102146.81
2022-08-05T22:41:10.266Z,102142.09
2022-08-05T22:43:37.971Z,102148.78
2022-08-05T22:46:11.990Z,102152.69
2022-08-05T22:48:41.334Z,102153.84
2022-08-05T22:51:08.464Z,102162.34
2022-08-05T22:53:42.773Z,102165.44
2022-08-05T22:56:17.674Z,102166.41
2022-08-05T22:58:58.205Z,102157.25
2022-08-05T23:02:04.218Z,102172.28
2022-08-05T23:04:13.613Z,102169.47
2022-08-05T23:06:41.155Z,102173.91
2022-08-05T23:09:27.121Z,102178.28
2022-08-05T23:11:55.782Z,102177.97
2022-08-05T23:14:32.160Z,102177.78
2022-08-05T23:17:24.604Z,102182.50
2022-08-05T23:20:02.241Z,102185.56
2022-08-05T23:22:29.685Z,102189.19
2022-08-05T23:24:57.595Z,102181.81
2022-08-05T23:27:28.900Z,102193.03
2022-08-05T23:30:10.715Z,102185.38
2022-08-05T23:32:37.615Z,102193.50
2022-08-05T23:35:07.769Z,102192.84
2022-08-05T23:37:36.738Z,102199.38
2022-08-05T23:40:07.857Z,102197.06
2022-08-05T23:42:37.381Z,102195.59
2022-08-05T23:45:13.851Z,102200.31
2022-08-05T23:47:47.690Z,102190.59
2022-08-05T23:50:14.830Z,102198.59
2022-08-05T23:52:49.422Z,102200.84
2022-08-05T23:55:16.958Z,102200.19
2022-08-05T23:57:44.135Z,102195.44
